Aviation Digital Data Service (ADDS)

Output produced by METARs form (1727 UTC 01 March 2021)
found at http://aviationweather.gov/metar/data/
 
METAR text: K20V 011715Z AUTO 00000KT 10SM CLR M14/M20 A3046 RMK AO2
Conditions at: K20V (KREMMLING AWOS , CO, US) observed 1715 UTC 01 March 2021
Temperature: -14.0°C ( 7°F)
Dewpoint: -20.0°C (-4°F) [RH = 60%]
Pressure (altimeter): 30.46 inches Hg (1031.6 mb)
Winds: calm
Visibility: 10 or more miles (16+ km)
Ceiling: at least 12,000 feet AGL
Clouds: sky clear below 12,000 feet AGL
Weather: automated observation with no human augmentation;
there may or may not be significant weather present at this time

METAR text: K20V 011655Z AUTO 00000KT 10SM CLR M15/M20 A3046 RMK AO2
Conditions at: K20V (KREMMLING AWOS , CO, US) observed 1655 UTC 01 March 2021
Temperature: -15.0°C ( 5°F)
Dewpoint: -20.0°C (-4°F) [RH = 66%]
Pressure (altimeter): 30.46 inches Hg (1031.6 mb)
Winds: calm
Visibility: 10 or more miles (16+ km)
Ceiling: at least 12,000 feet AGL
Clouds: sky clear below 12,000 feet AGL
Weather: automated observation with no human augmentation;
there may or may not be significant weather present at this time

METAR text: K20V 011635Z AUTO 00000KT 10SM CLR M17/M21 A3046 RMK AO2
Conditions at: K20V (KREMMLING AWOS , CO, US) observed 1635 UTC 01 March 2021
Temperature: -17.0°C ( 1°F)
Dewpoint: -21.0°C (-6°F) [RH = 71%]
Pressure (altimeter): 30.46 inches Hg (1031.6 mb)
Winds: calm
Visibility: 10 or more miles (16+ km)
Ceiling: at least 12,000 feet AGL
Clouds: sky clear below 12,000 feet AGL
Weather: automated observation with no human augmentation;
there may or may not be significant weather present at this time